Time;durP1;ratioP1;P1;durP2;ratioP2;P2;SDS_P1;SDS_P2;PMS_P1;PMS_P2;Temp;Humidity;BMP_temperature;BMP_pressure;BME280_temperature;BME280_humidity;BME280_pressure;Samples;Min_cycle;Max_cycle;Signal;HPM_P1;HPM_P2
2021/12/20 00:02:21;;;;;;;3.30;3.00;;;;;;;19.69;47.00;98067.25;4860050;29;20298;-78
2021/12/20 00:04:51;;;;;;;3.30;3.00;;;;;;;19.68;46.95;98073.19;4844713;29;20207;-78
2021/12/20 00:07:18;;;;;;;3.40;3.10;;;;;;;19.02;47.15;97963.03;4877156;29;20321;-78
2021/12/20 00:09:45;;;;;;;3.43;3.13;;;;;;;19.67;47.06;98076.53;4859382;29;20346;-78
2021/12/20 00:12:12;;;;;;;3.63;3.33;;;;;;;18.80;46.85;97917.00;4845074;29;20263;-78
2021/12/20 00:14:38;;;;;;;3.43;3.13;;;;;;;19.67;46.86;98070.56;4876715;29;20643;-80
2021/12/20 00:17:05;;;;;;;3.40;3.10;;;;;;;19.67;46.63;98066.34;4860695;29;20314;-78
2021/12/20 00:19:31;;;;;;;3.43;3.13;;;;;;;19.66;46.75;98064.56;4876900;29;20298;-80
2021/12/20 00:21:58;;;;;;;3.93;3.63;;;;;;;19.67;47.03;98066.34;4860211;29;20757;-79
2021/12/20 00:24:27;;;;;;;3.63;3.33;;;;;;;18.24;46.87;97815.09;4856035;29;20222;-78
2021/12/20 00:26:53;;;;;;;3.50;3.20;;;;;;;19.51;46.84;98030.75;4898940;23;20321;-88
2021/12/20 00:29:20;;;;;;;3.57;3.27;;;;;;;19.50;46.76;98026.47;4884608;29;20202;-91
2021/12/20 00:31:47;;;;;;;3.77;3.47;;;;;;;19.06;46.92;97956.38;4891576;29;20290;-90
2021/12/20 00:34:13;;;;;;;3.70;3.40;;;;;;;19.49;47.31;98034.91;4858010;29;20627;-89
2021/12/20 00:36:40;;;;;;;3.40;3.10;;;;;;;19.43;46.96;98005.72;4861939;29;20760;-89
2021/12/20 00:41:52;;;;;;;3.80;3.50;;;;;;;19.43;46.98;98008.28;4885689;29;20251;-88
2021/12/20 00:44:18;;;;;;;3.60;3.30;;;;;;;19.44;47.22;98018.53;4889085;29;20308;-89
2021/12/20 00:46:52;;;;;;;3.70;3.40;;;;;;;19.40;47.11;98015.78;4849045;29;20248;-86
2021/12/20 00:49:19;;;;;;;3.40;3.10;;;;;;;19.42;46.89;98007.38;4860912;29;20218;-89
2021/12/20 00:51:45;;;;;;;3.37;3.07;;;;;;;19.49;47.04;98016.19;4861403;29;20602;-89
2021/12/20 00:54:12;;;;;;;3.57;3.27;;;;;;;19.40;46.90;97995.38;4876338;29;20309;-88
2021/12/20 00:56:38;;;;;;;3.30;3.00;;;;;;;19.42;47.21;97999.75;4861388;29;20347;-89
2021/12/20 00:59:05;;;;;;;3.40;3.10;;;;;;;19.35;46.94;97991.75;4861764;29;20286;-89
2021/12/20 01:01:32;;;;;;;3.60;3.30;;;;;;;19.43;47.01;98000.63;4863952;29;20252;-89
2021/12/20 01:03:58;;;;;;;3.47;3.17;;;;;;;19.48;47.04;98012.75;4864352;29;20280;-89
2021/12/20 01:06:25;;;;;;;3.60;3.30;;;;;;;19.40;47.02;97987.75;4878251;29;20234;-89
2021/12/20 01:30:21;;;;;;;3.47;3.17;;;;;;;19.07;47.17;97964.09;5612727;23;20238;-91
2021/12/20 01:32:48;;;;;;;3.00;2.80;;;;;;;19.49;47.31;98047.66;4850995;29;20293;-92
2021/12/20 01:35:15;;;;;;;3.60;3.30;;;;;;;19.39;47.28;98019.13;4860242;29;20210;-88
2021/12/20 01:37:41;;;;;;;3.30;3.00;;;;;;;19.45;47.02;98024.50;4841953;29;20238;-89
2021/12/20 01:40:10;;;;;;;3.67;3.37;;;;;;;19.06;46.75;97952.19;4826424;29;20301;-89
2021/12/20 01:42:36;;;;;;;3.30;3.00;;;;;;;19.42;47.05;98014.19;4842387;29;20305;-90
2021/12/20 01:45:04;;;;;;;3.63;3.33;;;;;;;19.34;47.11;98005.31;4841520;29;20306;-90
2021/12/20 01:47:35;;;;;;;3.60;3.30;;;;;;;19.33;46.96;98006.13;4842013;29;20246;-90
2021/12/20 01:50:09;;;;;;;3.80;3.50;;;;;;;19.50;47.25;98035.78;4842969;29;20206;-90
2021/12/20 01:52:42;;;;;;;3.80;3.43;;;;;;;19.32;47.05;98002.69;4828614;29;20361;-90
2021/12/20 01:55:11;;;;;;;3.67;3.37;;;;;;;19.21;47.23;97974.91;4842825;29;20649;-89
2021/12/20 01:57:41;;;;;;;3.33;3.07;;;;;;;19.24;47.11;97977.59;4841966;29;20348;-89
2021/12/20 02:00:10;;;;;;;3.53;3.23;;;;;;;19.45;47.00;98011.78;4840338;29;20507;-89
2021/12/20 02:02:37;;;;;;;3.37;3.07;;;;;;;19.51;47.04;98024.78;4841267;29;20311;-88
2021/12/20 02:05:15;;;;;;;3.03;2.83;;;;;;;19.45;47.22;98022.81;4848437;29;20563;-90
2021/12/20 02:07:59;;;;;;;3.30;3.00;;;;;;;19.46;47.04;98019.50;4828930;29;20226;-91
2021/12/20 02:10:26;;;;;;;3.60;3.30;;;;;;;19.44;46.83;98015.09;4831097;29;20289;-91
2021/12/20 02:12:53;;;;;;;3.77;3.43;;;;;;;19.15;47.09;97970.44;4842043;29;20211;-89
2021/12/20 02:15:19;;;;;;;3.23;2.93;;;;;;;19.53;47.15;98034.25;4841123;29;20298;-89
2021/12/20 02:17:46;;;;;;;3.60;3.30;;;;;;;19.39;47.10;97999.59;4826395;29;20234;-90
2021/12/20 02:20:32;;;;;;;3.70;3.40;;;;;;;19.53;46.92;98028.25;4841778;29;20267;-89
2021/12/20 02:22:59;;;;;;;3.70;3.40;;;;;;;19.44;47.10;98002.34;4827936;29;20294;-91
2021/12/20 02:25:26;;;;;;;3.40;3.10;;;;;;;19.42;46.90;98012.47;4841759;29;20207;-89
2021/12/20 02:27:53;;;;;;;3.70;3.40;;;;;;;19.50;47.11;98013.72;4830636;29;20230;-89
2021/12/20 02:30:41;;;;;;;3.73;3.43;;;;;;;19.21;47.34;97970.72;4829717;29;20256;-90
2021/12/20 02:38:40;;;;;;;3.53;3.27;;;;;;;19.42;46.96;98002.28;4831644;29;20210;-90
2021/12/20 02:41:33;;;;;;;3.27;2.97;;;;;;;19.65;47.16;98039.00;4829793;29;20767;-89
2021/12/20 02:44:05;;;;;;;3.43;3.13;;;;;;;19.57;47.04;98031.00;4841795;29;20286;-90
2021/12/20 02:49:17;;;;;;;3.40;3.10;;;;;;;19.28;47.16;97971.91;4860713;29;20670;-90
2021/12/20 02:51:44;;;;;;;3.30;3.00;;;;;;;19.58;47.22;98032.78;4845566;29;20298;-89
2021/12/20 02:54:15;;;;;;;3.23;2.93;;;;;;;19.41;47.08;98003.09;4830834;29;20207;-90
2021/12/20 02:56:42;;;;;;;3.43;3.13;;;;;;;19.53;47.23;98018.94;4828743;29;20319;-91
2021/12/20 02:59:09;;;;;;;3.50;3.20;;;;;;;19.11;47.22;97952.38;4844853;29;20246;-90
2021/12/20 03:01:38;;;;;;;3.50;3.20;;;;;;;19.47;47.10;98005.94;4841186;29;20610;-90
2021/12/20 03:04:04;;;;;;;3.10;2.90;;;;;;;19.44;47.47;98008.34;4834451;29;20265;-90
2021/12/20 03:06:46;;;;;;;3.30;3.00;;;;;;;19.05;47.27;97932.63;4859712;29;20231;-89
2021/12/20 03:46:45;;;;;;;3.70;3.40;;;;;;;19.35;47.15;97979.88;5088854;23;20724;-90
2021/12/20 03:49:11;;;;;;;3.27;2.97;;;;;;;19.48;47.29;98010.22;4836123;29;20301;-89
2021/12/20 03:51:38;;;;;;;3.30;3.00;;;;;;;19.41;47.00;97998.00;4847464;29;20302;-89
2021/12/20 03:54:05;;;;;;;3.33;3.03;;;;;;;19.46;47.12;98010.97;4846419;29;20234;-90
2021/12/20 03:56:31;;;;;;;3.03;2.83;;;;;;;19.56;47.12;98029.28;4846661;29;20272;-90
2021/12/20 03:58:58;;;;;;;3.50;3.20;;;;;;;19.57;47.27;98017.41;4861952;29;20293;-90
2021/12/20 04:01:25;;;;;;;3.57;3.27;;;;;;;19.54;47.03;98014.72;4847545;29;20218;-90
2021/12/20 04:03:52;;;;;;;3.20;2.90;;;;;;;19.52;47.21;98008.69;4846784;29;20293;-88
2021/12/20 04:06:19;;;;;;;3.40;3.10;;;;;;;19.11;47.05;97943.09;4847075;29;20222;-89
2021/12/20 04:08:46;;;;;;;3.67;3.30;;;;;;;19.51;47.07;98007.78;4861579;29;20234;-90
2021/12/20 04:11:13;;;;;;;3.40;3.10;;;;;;;19.53;46.98;98010.41;4846719;29;20289;-88
2021/12/20 04:13:39;;;;;;;3.03;2.83;;;;;;;19.52;47.04;98018.88;4858518;29;20297;-90
2021/12/20 04:16:06;;;;;;;3.37;3.17;;;;;;;19.65;46.85;98039.00;4828732;29;20326;-90
2021/12/20 04:18:32;;;;;;;3.50;3.20;;;;;;;19.58;46.89;98035.34;4866337;29;20234;-91
2021/12/20 04:21:05;;;;;;;3.50;3.20;;;;;;;19.00;46.96;97928.09;4848897;29;20290;-90
2021/12/20 04:23:31;;;;;;;3.70;3.40;;;;;;;19.50;47.09;98016.25;4844830;29;20302;-90
2021/12/20 04:25:58;;;;;;;3.40;3.10;;;;;;;19.42;46.89;98007.38;4846609;29;20410;-89
2021/12/20 04:28:25;;;;;;;3.40;3.10;;;;;;;19.56;47.05;98038.59;4861636;29;20663;-90
2021/12/20 04:30:51;;;;;;;3.47;3.17;;;;;;;19.43;46.92;98014.25;4861620;29;20237;-90
2021/12/20 04:33:18;;;;;;;3.50;3.20;;;;;;;19.47;46.95;98030.53;4861068;29;20325;-89
2021/12/20 04:35:45;;;;;;;3.17;2.87;;;;;;;19.57;46.92;98051.41;4845570;29;20206;-90
2021/12/20 04:38:11;;;;;;;3.70;3.40;;;;;;;19.47;47.11;98027.97;4861414;29;20313;-89
2021/12/20 04:40:38;;;;;;;3.47;3.17;;;;;;;19.42;47.02;98021.84;4845417;29;20238;-90
2021/12/20 04:43:04;;;;;;;3.33;3.03;;;;;;;19.57;46.95;98059.06;4845245;29;20236;-90
2021/12/20 04:45:31;;;;;;;3.60;3.30;;;;;;;19.28;47.03;98002.47;4846193;29;20238;-90
2021/12/20 04:47:58;;;;;;;3.67;3.37;;;;;;;19.11;47.08;97976.19;4845902;29;20273;-90
2021/12/20 04:50:25;;;;;;;3.40;3.10;;;;;;;19.48;47.04;98043.34;4845328;29;20681;-90
2021/12/20 04:52:54;;;;;;;3.60;3.30;;;;;;;19.61;46.99;98067.72;4845751;29;20238;-88
2021/12/20 04:55:21;;;;;;;3.63;3.33;;;;;;;19.61;46.98;98062.63;4861701;29;20233;-90
2021/12/20 04:57:48;;;;;;;3.47;3.17;;;;;;;19.51;47.17;98047.75;4876304;29;20805;-89
2021/12/20 05:00:19;;;;;;;3.60;3.30;;;;;;;19.52;47.02;98050.34;4845475;29;20695;-89
2021/12/20 05:02:46;;;;;;;3.30;3.10;;;;;;;19.53;47.09;98051.19;4849423;29;20215;-89
2021/12/20 05:05:13;;;;;;;3.40;3.10;;;;;;;19.07;46.91;97976.00;4843373;29;20767;-90
2021/12/20 05:07:40;;;;;;;3.33;3.03;;;;;;;19.13;47.12;97982.22;4860205;29;20309;-91
2021/12/20 05:10:09;;;;;;;3.70;3.40;;;;;;;19.48;47.19;98047.59;4845429;29;20285;-90
2021/12/20 05:12:35;;;;;;;3.50;3.20;;;;;;;19.29;46.89;98025.47;4845740;29;20234;-89
2021/12/20 05:15:02;;;;;;;3.00;2.80;;;;;;;19.10;47.13;97976.97;4845358;29;20301;-90
2021/12/20 05:17:29;;;;;;;3.30;3.00;;;;;;;19.41;47.27;98033.69;4860341;29;20344;-90
2021/12/20 05:19:56;;;;;;;3.10;2.90;;;;;;;19.39;47.12;98031.88;4861144;29;20202;-91
2021/12/20 05:22:23;;;;;;;3.70;3.30;;;;;;;19.39;47.11;98037.84;4860190;29;20309;-89
2021/12/20 05:24:49;;;;;;;3.60;3.30;;;;;;;19.46;46.96;98046.66;4860864;29;20248;-89
2021/12/20 05:27:19;;;;;;;3.07;2.87;;;;;;;19.08;46.94;97978.59;4845628;29;20313;-89
2021/12/20 05:29:48;;;;;;;2.80;2.60;;;;;;;19.47;47.25;98054.34;4842345;29;20318;-90
2021/12/20 05:32:14;;;;;;;3.00;2.80;;;;;;;19.44;47.20;98048.25;4841386;29;20720;-90
2021/12/20 05:34:41;;;;;;;3.47;3.17;;;;;;;19.08;47.18;97988.78;4844694;29;20684;-89
2021/12/20 05:37:08;;;;;;;3.67;3.37;;;;;;;19.22;47.33;98014.91;4846685;29;20273;-90
2021/12/20 05:39:34;;;;;;;3.00;2.80;;;;;;;19.39;47.22;98042.09;4842271;29;20253;-89
2021/12/20 05:42:01;;;;;;;3.30;3.00;;;;;;;19.46;47.40;98056.84;4860099;29;20712;-89
2021/12/20 05:44:27;;;;;;;3.10;2.90;;;;;;;19.33;47.15;98034.16;4842281;29;20271;-90
2021/12/20 05:46:54;;;;;;;3.30;3.00;;;;;;;19.39;47.35;98049.72;4827243;29;20333;-90
2021/12/20 05:49:20;;;;;;;3.13;2.93;;;;;;;19.37;47.44;98052.19;4836180;29;20222;-89
2021/12/20 05:51:47;;;;;;;2.87;2.63;;;;;;;19.47;47.32;98073.88;4844713;29;20294;-88
2021/12/20 05:54:14;;;;;;;3.03;2.80;;;;;;;19.35;47.21;98056.34;4860972;29;20685;-89
2021/12/20 05:56:40;;;;;;;2.90;2.70;;;;;;;19.36;47.42;98057.22;4845666;29;20230;-90
2021/12/20 05:59:07;;;;;;;3.27;2.93;;;;;;;19.16;47.33;98030.75;4844958;29;20297;-89
2021/12/20 06:01:34;;;;;;;3.30;3.00;;;;;;;19.32;47.12;98056.22;4862170;29;20272;-88
2021/12/20 06:04:00;;;;;;;3.30;3.00;;;;;;;19.02;47.28;98001.25;4848768;29;20776;-89
2021/12/20 06:06:28;;;;;;;3.17;2.87;;;;;;;19.51;47.38;98096.16;4878912;29;20662;-89
2021/12/20 06:08:55;;;;;;;3.30;3.00;;;;;;;19.33;47.32;98050.28;4848769;29;20230;-89
2021/12/20 06:11:22;;;;;;;3.40;3.10;;;;;;;19.10;47.36;98015.19;4863903;29;20610;-88
2021/12/20 06:13:49;;;;;;;3.40;3.10;;;;;;;19.33;47.25;98050.28;4845299;29;20301;-88
2021/12/20 06:16:15;;;;;;;3.70;3.40;;;;;;;19.38;47.35;98060.69;4848004;29;20258;-89
2021/12/20 06:18:42;;;;;;;3.30;3.00;;;;;;;19.38;47.29;98074.31;4863749;29;20237;-88
2021/12/20 06:21:09;;;;;;;3.30;3.00;;;;;;;19.51;47.36;98098.72;4875600;29;20229;-89
2021/12/20 06:23:35;;;;;;;2.87;2.57;;;;;;;19.33;47.39;98069.84;4852231;29;20301;-88
2021/12/20 06:28:31;;;;;;;2.97;2.77;;;;;;;18.73;47.47;97965.91;4934959;23;20237;-78
2021/12/20 06:30:57;;;;;;;3.20;2.90;;;;;;;19.59;47.42;98123.75;4883761;29;20265;-77
2021/12/20 06:33:24;;;;;;;3.30;3.00;;;;;;;19.61;47.26;98128.94;4892373;29;20254;-80
2021/12/20 06:35:51;;;;;;;2.77;2.57;;;;;;;18.67;47.34;97969.81;4880617;29;20244;-79
2021/12/20 06:38:21;;;;;;;3.50;3.20;;;;;;;17.91;47.28;97833.84;4893303;29;20264;-77
2021/12/20 06:40:49;;;;;;;3.50;3.20;;;;;;;16.11;47.34;97530.25;4913636;29;20301;-76
2021/12/20 06:43:16;;;;;;;3.63;3.33;;;;;;;19.28;47.11;98101.88;4911187;29;20715;-78
2021/12/20 06:45:43;;;;;;;3.20;2.90;;;;;;;19.12;47.36;98045.84;4896634;29;20688;-80
2021/12/20 06:48:09;;;;;;;3.00;2.80;;;;;;;19.61;47.34;98129.81;4897906;29;20317;-78
2021/12/20 06:50:36;;;;;;;3.30;3.00;;;;;;;18.74;47.25;97982.06;4912923;29;20244;-78
2021/12/20 06:53:03;;;;;;;3.50;3.20;;;;;;;19.61;47.35;98144.22;4900611;29;20205;-79
2021/12/20 06:55:30;;;;;;;3.20;2.90;;;;;;;18.40;47.05;97938.84;4918490;29;20220;-78
2021/12/20 06:57:56;;;;;;;3.77;3.47;;;;;;;19.61;47.67;98142.56;4918533;29;20269;-76
2021/12/20 07:00:23;;;;;;;5.23;2.90;;;;;;;18.57;47.37;97968.53;4902040;29;20234;-78
2021/12/20 07:02:50;;;;;;;6.70;3.17;;;;;;;19.62;47.35;98154.50;4881764;29;20815;-77
2021/12/20 07:05:21;;;;;;;3.30;3.00;;;;;;;18.99;47.58;98067.34;4911588;29;20210;-78
2021/12/20 07:07:47;;;;;;;3.30;3.00;;;;;;;16.65;47.51;97641.19;4868152;29;20234;-79
2021/12/20 07:10:14;;;;;;;5.23;3.20;;;;;;;19.61;47.49;98162.97;4882245;29;20202;-75
2021/12/20 07:12:41;;;;;;;3.13;2.83;;;;;;;19.44;47.51;98132.34;4897811;29;20680;-77
2021/12/20 07:15:12;;;;;;;3.50;2.93;;;;;;;19.36;47.59;98123.50;4881403;29;20671;-77
2021/12/20 07:17:39;;;;;;;3.47;3.13;;;;;;;19.62;47.50;98164.69;4904561;29;20297;-81
2021/12/20 07:20:07;;;;;;;3.73;3.33;;;;;;;18.79;47.73;98022.22;4900238;29;20226;-79
2021/12/20 07:22:33;;;;;;;2.83;2.60;;;;;;;19.61;47.67;98168.06;4880990;29;20332;-81
2021/12/20 07:25:01;;;;;;;3.60;3.30;;;;;;;17.03;47.63;97733.72;4896884;29;20206;-78
2021/12/20 07:27:28;;;;;;;3.40;3.10;;;;;;;19.55;47.46;98159.25;4869481;29;20226;-80
2021/12/20 07:29:54;;;;;;;3.57;2.97;;;;;;;19.61;48.30;98178.25;4880525;29;20252;-74
2021/12/20 07:32:21;;;;;;;3.70;2.97;;;;;;;19.06;47.53;98102.47;4917489;29;20225;-78
2021/12/20 07:34:47;;;;;;;6.80;2.90;;;;;;;19.61;47.87;98168.06;4916795;29;20288;-75
2021/12/20 07:37:14;;;;;;;5.47;2.80;;;;;;;19.32;48.28;98122.47;4906508;29;20697;-80
2021/12/20 07:39:41;;;;;;;5.37;2.67;;;;;;;19.28;48.28;98118.03;4871810;29;20653;-78
2021/12/20 07:42:08;;;;;;;4.70;2.83;;;;;;;19.63;48.24;98176.63;4908375;29;20264;-79
2021/12/20 07:44:34;;;;;;;4.00;3.03;;;;;;;16.82;48.29;97697.09;4907731;29;20238;-77
2021/12/20 07:47:02;;;;;;;13.10;3.43;;;;;;;19.63;48.56;98178.31;4899893;29;20253;-78
2021/12/20 07:49:29;;;;;;;8.60;2.97;;;;;;;19.64;48.71;98180.94;4909605;29;20269;-78
2021/12/20 07:51:56;;;;;;;4.67;2.83;;;;;;;19.64;48.72;98185.16;4894771;29;20882;-78
2021/12/20 07:54:22;;;;;;;4.10;2.90;;;;;;;19.06;48.64;98076.13;4907574;29;20306;-78
2021/12/20 07:56:49;;;;;;;8.63;2.83;;;;;;;15.93;48.66;97563.09;4902067;29;20333;-78
2021/12/20 07:59:15;;;;;;;5.17;2.67;;;;;;;19.63;48.76;98181.72;4855523;29;20229;-87
2021/12/20 08:01:42;;;;;;;7.67;3.10;;;;;;;19.29;48.42;98113.78;4907330;29;20425;-84
2021/12/20 08:04:08;;;;;;;11.97;3.37;;;;;;;19.43;48.59;98145.91;4912181;29;20248;-87
2021/12/20 08:06:35;;;;;;;5.70;2.90;;;;;;;19.63;48.56;98189.38;4916206;29;20390;-86
2021/12/20 08:09:02;;;;;;;5.60;2.93;;;;;;;18.71;48.38;98028.59;4913390;29;20598;-87
2021/12/20 08:11:29;;;;;;;5.30;2.97;;;;;;;18.99;48.60;98084.28;4906532;29;20298;-85
2021/12/20 08:13:56;;;;;;;3.50;2.87;;;;;;;18.97;48.27;98096.94;4910990;29;20737;-86
2021/12/20 08:16:23;;;;;;;6.43;2.70;;;;;;;19.62;48.54;98196.97;4913821;29;20248;-86
2021/12/20 08:18:50;;;;;;;5.30;2.67;;;;;;;19.61;48.42;98195.22;4915529;29;20315;-85
2021/12/20 08:21:16;;;;;;;6.30;2.93;;;;;;;19.62;48.39;98204.59;4911945;29;20214;-86
2021/12/20 08:23:48;;;;;;;4.40;2.67;;;;;;;19.63;48.41;98208.94;4911158;29;20300;-88
2021/12/20 08:26:15;;;;;;;5.97;3.00;;;;;;;16.08;48.38;97618.81;4911851;29;20211;-87
2021/12/20 08:28:41;;;;;;;6.03;3.00;;;;;;;18.46;48.98;98007.84;4896044;29;20675;-86
2021/12/20 08:31:10;;;;;;;5.23;2.97;;;;;;;18.72;48.44;98070.22;4899626;29;20209;-86
2021/12/20 08:33:36;;;;;;;3.50;3.20;;;;;;;16.91;48.16;97799.09;4887307;29;20524;-84
2021/12/20 08:36:05;;;;;;;7.47;3.03;;;;;;;15.46;48.20;97557.25;4914549;29;20680;-85
2021/12/20 08:38:32;;;;;;;6.10;3.03;;;;;;;19.67;48.33;98213.34;4915901;29;20864;-85
2021/12/20 08:40:59;;;;;;;5.43;2.83;;;;;;;19.17;48.25;98126.81;4896362;29;20296;-88
2021/12/20 08:43:27;;;;;;;7.27;3.00;;;;;;;19.34;48.46;98156.56;4899684;29;20312;-86
2021/12/20 08:45:53;;;;;;;4.00;2.80;;;;;;;19.70;48.12;98210.94;4912517;29;20578;-84
2021/12/20 08:48:20;;;;;;;6.60;2.93;;;;;;;15.68;48.17;97514.50;4897916;29;20328;-89
2021/12/20 08:50:47;;;;;;;4.80;3.07;;;;;;;18.66;48.37;98032.59;4897643;29;20704;-88
2021/12/20 08:53:14;;;;;;;5.30;3.13;;;;;;;19.74;48.14;98217.94;4911918;29;20296;-84
2021/12/20 08:55:41;;;;;;;3.43;2.80;;;;;;;19.12;47.89;98109.53;4912135;29;20280;-86
2021/12/20 08:58:07;;;;;;;7.60;2.87;;;;;;;19.75;48.01;98217.16;4907134;29;20232;-86
2021/12/20 09:00:35;;;;;;;5.70;3.00;;;;;;;18.04;47.89;98008.25;4907760;29;20241;-87
2021/12/20 09:03:02;;;;;;;5.47;3.00;;;;;;;17.24;47.96;97794.84;4895795;29;20232;-88
2021/12/20 09:05:29;;;;;;;4.87;3.17;;;;;;;19.79;47.89;98217.38;4906793;29;20675;-88
2021/12/20 09:07:57;;;;;;;3.27;2.97;;;;;;;18.53;47.82;97999.72;4912187;29;20320;-87
2021/12/20 09:10:24;;;;;;;5.97;3.00;;;;;;;19.80;47.88;98221.66;4893094;29;20301;-87
2021/12/20 09:12:50;;;;;;;4.30;3.27;;;;;;;19.82;47.90;98229.38;4912877;29;20236;-86
2021/12/20 09:15:17;;;;;;;3.67;2.93;;;;;;;19.82;47.72;98230.25;4913439;29;20843;-84
2021/12/20 09:17:45;;;;;;;3.37;2.97;;;;;;;19.83;47.79;98226.91;4907783;29;20230;-85
2021/12/20 09:20:15;;;;;;;3.93;3.10;;;;;;;19.84;47.87;98218.44;4909671;29;20204;-84
2021/12/20 09:22:52;;;;;;;4.07;3.17;;;;;;;19.85;47.69;98225.31;4906793;29;20332;-87
2021/12/20 09:25:28;;;;;;;15.00;5.60;;;;;;;19.85;46.80;98215.09;4901997;29;20215;-87
2021/12/20 09:27:55;;;;;;;8.50;5.73;;;;;;;19.57;46.39;98172.94;4923358;29;20240;-88
2021/12/20 09:30:23;;;;;;;7.57;5.60;;;;;;;19.68;45.74;98194.69;4900816;29;20238;-87
2021/12/20 09:32:50;;;;;;;9.80;6.20;;;;;;;18.92;45.00;98061.88;4903729;29;20542;-87
2021/12/20 09:35:17;;;;;;;7.00;5.83;;;;;;;18.09;44.18;97915.25;4892132;29;20228;-85
2021/12/20 09:37:49;;;;;;;9.13;5.67;;;;;;;19.19;43.70;98106.50;4910188;29;20308;-88
2021/12/20 09:40:15;;;;;;;7.67;5.50;;;;;;;18.03;42.81;97904.78;4901759;29;20237;-85
2021/12/20 09:42:53;;;;;;;8.43;5.30;;;;;;;18.75;42.62;98032.16;4861466;29;20368;-85
2021/12/20 09:45:20;;;;;;;8.87;5.50;;;;;;;19.83;41.11;98233.66;4883193;29;20220;-85
2021/12/20 09:47:47;;;;;;;8.57;5.87;;;;;;;18.38;40.95;97981.16;4884186;29;20253;-86
2021/12/20 09:50:14;;;;;;;21.67;5.97;;;;;;;19.23;41.44;98128.75;4889289;29;20207;-87
2021/12/20 09:52:42;;;;;;;10.80;5.40;;;;;;;16.48;41.98;97653.03;4888384;29;20237;-87
2021/12/20 09:55:09;;;;;;;6.53;5.00;;;;;;;19.31;42.49;98146.22;4905996;29;20202;-79
2021/12/20 09:57:36;;;;;;;6.93;5.20;;;;;;;17.10;42.86;97750.97;4877986;29;20346;-79
2021/12/20 10:00:04;;;;;;;7.20;5.00;;;;;;;19.46;43.06;98161.34;4906490;29;20205;-79
2021/12/20 10:02:31;;;;;;;8.23;5.00;;;;;;;18.32;43.40;97967.25;4893449;29;20684;-83
2021/12/20 10:04:58;;;;;;;6.33;4.63;;;;;;;19.80;43.56;98221.66;4890822;29;20201;-79
2021/12/20 10:07:26;;;;;;;8.70;4.57;;;;;;;19.81;44.00;98223.41;4894183;29;20658;-78
2021/12/20 10:09:52;;;;;;;8.13;4.53;;;;;;;19.82;44.06;98222.63;4893763;29;20296;-80
2021/12/20 10:12:24;;;;;;;5.67;4.20;;;;;;;19.80;44.28;98216.56;4902821;29;21011;-80
2021/12/20 10:14:51;;;;;;;5.93;4.23;;;;;;;18.92;44.50;98061.88;4909900;29;20212;-79
2021/12/20 10:17:18;;;;;;;4.83;4.00;;;;;;;19.54;44.54;98180.44;4903499;29;20293;-78
2021/12/20 10:19:45;;;;;;;6.00;4.07;;;;;;;19.83;44.84;98226.00;4887206;29;20289;-79
2021/12/20 10:22:28;;;;;;;9.17;4.10;;;;;;;19.32;44.67;98132.66;4912298;29;20297;-78
2021/12/20 10:24:57;;;;;;;6.33;3.93;;;;;;;19.30;44.97;98147.00;4910000;29;20751;-81
2021/12/20 10:27:35;;;;;;;7.17;4.00;;;;;;;19.83;44.96;98218.38;4885186;29;20237;-79
2021/12/20 10:30:26;;;;;;;5.27;3.83;;;;;;;19.56;45.09;98176.28;4910313;29;20639;-82
2021/12/20 10:32:53;;;;;;;6.07;3.90;;;;;;;19.28;45.24;98133.34;4891029;29;20234;-79
2021/12/20 10:35:25;;;;;;;4.43;3.87;;;;;;;19.83;45.26;98228.56;4886855;29;20202;-80
2021/12/20 10:37:53;;;;;;;8.47;6.13;;;;;;;18.91;42.95;98062.66;4893048;29;20253;-76
2021/12/20 10:40:20;;;;;;;10.40;5.70;;;;;;;19.52;41.36;98165.06;4876710;29;20301;-80
2021/12/20 10:42:48;;;;;;;9.73;4.83;;;;;;;19.37;40.59;98164.34;4907837;29;20257;-80
2021/12/20 10:45:19;;;;;;;7.23;4.57;;;;;;;18.07;41.33;97920.25;4891426;29;20213;-80
2021/12/20 10:47:50;;;;;;;7.13;4.47;;;;;;;19.53;41.79;98178.66;4877705;29;20266;-81
2021/12/20 10:50:31;;;;;;;9.10;4.67;;;;;;;19.36;42.47;98160.03;4879848;29;20211;-79
2021/12/20 10:53:18;;;;;;;7.60;4.27;;;;;;;19.70;43.01;98216.06;4895318;29;20237;-79
2021/12/20 10:55:48;;;;;;;5.63;4.17;;;;;;;19.42;43.20;98167.13;4894930;29;20297;-79
2021/12/20 10:58:28;;;;;;;9.13;4.60;;;;;;;19.67;43.43;98211.69;4892670;29;20301;-81
2021/12/20 11:04:11;;;;;;;7.77;3.90;;;;;;;18.50;43.77;98009.72;4891997;29;20260;-78
2021/12/20 11:09:15;;;;;;;6.50;4.03;;;;;;;19.61;44.14;98192.66;4914551;29;20229;-77
2021/12/20 11:11:48;;;;;;;4.33;3.90;;;;;;;19.42;44.12;98167.13;4901408;29;20206;-81
2021/12/20 11:14:14;;;;;;;3.97;3.57;;;;;;;19.65;44.16;98204.75;4888093;29;20224;-82
2021/12/20 11:16:43;;;;;;;4.83;3.83;;;;;;;17.51;44.36;97832.69;4909309;29;20309;-81
2021/12/20 11:19:17;;;;;;;4.83;4.03;;;;;;;18.87;44.34;98061.66;4848552;29;20392;-80
2021/12/20 11:21:51;;;;;;;5.77;3.63;;;;;;;19.64;44.50;98198.78;4889988;29;20290;-80
2021/12/20 11:24:20;;;;;;;5.03;3.53;;;;;;;19.00;44.53;98086.91;4904704;29;20245;-79
2021/12/20 11:26:46;;;;;;;5.30;3.70;;;;;;;18.43;44.64;97989.00;4913055;29;20267;-80
2021/12/20 11:29:13;;;;;;;5.23;3.70;;;;;;;19.29;44.54;98137.63;4897799;29;20255;-79
2021/12/20 11:31:40;;;;;;;6.03;3.60;;;;;;;19.63;44.98;98201.28;4913298;29;20244;-80
2021/12/20 11:34:06;;;;;;;4.53;3.10;;;;;;;19.62;44.83;98200.38;4883752;29;20736;-79
2021/12/20 11:36:33;;;;;;;3.77;3.07;;;;;;;18.99;44.94;98087.72;4881726;29;20265;-81
2021/12/20 11:39:00;;;;;;;4.57;3.60;;;;;;;19.30;45.00;98141.91;4897435;29;20837;-80
2021/12/20 11:41:27;;;;;;;4.03;3.37;;;;;;;18.67;45.25;98020.72;4864062;29;20210;-80
2021/12/20 11:43:55;;;;;;;5.20;3.23;;;;;;;19.61;45.26;98188.44;4895352;29;20226;-75
2021/12/20 11:46:22;;;;;;;4.50;3.20;;;;;;;19.62;45.34;98194.41;4879368;29;20269;-81
2021/12/20 11:48:50;;;;;;;4.23;3.00;;;;;;;18.68;44.45;98031.00;4913716;29;20251;-83
2021/12/20 11:51:18;;;;;;;5.63;3.00;;;;;;;19.31;42.19;98145.34;4896767;29;20296;-82
2021/12/20 11:53:44;;;;;;;4.77;2.93;;;;;;;19.39;42.36;98156.78;4913229;29;20229;-79
2021/12/20 11:56:11;;;;;;;4.93;2.90;;;;;;;18.65;42.20;98020.66;4913258;29;20308;-79
2021/12/20 11:58:39;;;;;;;7.77;2.83;;;;;;;17.65;42.70;97851.16;4893114;29;20233;-79
2021/12/20 12:01:16;;;;;;;5.23;2.73;;;;;;;19.54;39.83;98178.75;4888484;29;20297;-76
2021/12/20 12:03:57;;;;;;;5.97;3.10;;;;;;;18.96;39.47;98092.66;4912193;29;20799;-78
2021/12/20 12:06:30;;;;;;;6.10;2.40;;;;;;;19.50;39.97;98204.91;4903064;29;20206;-80
2021/12/20 12:08:59;;;;;;;4.53;2.73;;;;;;;19.00;40.54;98099.63;4872311;29;20269;-80
2021/12/20 12:11:45;;;;;;;22.27;3.37;;;;;;;17.26;41.66;97789.03;4905221;29;20632;-81
2021/12/20 12:14:21;;;;;;;12.40;3.43;;;;;;;18.47;42.31;98004.50;4867507;29;20234;-81
2021/12/20 12:17:06;;;;;;;5.60;2.40;;;;;;;16.48;42.61;97662.31;4893869;29;20276;-81
2021/12/20 12:19:51;;;;;;;8.83;2.70;;;;;;;19.48;42.89;98188.66;4893712;29;20266;-80
2021/12/20 12:22:43;;;;;;;9.40;2.60;;;;;;;19.19;41.17;98124.31;4894182;29;20210;-79
2021/12/20 12:25:36;;;;;;;5.73;2.30;;;;;;;19.47;42.05;98181.81;4897274;29;20233;-77
2021/12/20 12:28:03;;;;;;;8.50;3.00;;;;;;;19.44;42.51;98168.03;4907485;23;20318;-83
2021/12/20 12:30:30;;;;;;;5.47;2.70;;;;;;;18.53;42.70;98014.97;4880259;29;20203;-83
2021/12/20 12:33:03;;;;;;;6.70;2.90;;;;;;;19.49;43.01;98176.78;4861872;29;20214;-82
2021/12/20 12:35:42;;;;;;;6.20;2.80;;;;;;;19.49;43.31;98164.03;4893476;29;20300;-84
2021/12/20 12:38:14;;;;;;;4.77;2.37;;;;;;;19.49;43.87;98170.03;4885104;29;20226;-83
2021/12/20 12:40:41;;;;;;;4.07;2.40;;;;;;;18.69;43.95;98027.66;4889073;29;20214;-85
2021/12/20 12:43:07;;;;;;;5.23;2.50;;;;;;;18.74;44.19;98049.09;4877611;29;20209;-82
2021/12/20 12:45:54;;;;;;;4.83;2.30;;;;;;;18.93;44.44;98078.88;4875464;29;20289;-83
2021/12/20 12:48:38;;;;;;;7.93;2.33;;;;;;;19.24;44.43;98133.03;4883348;29;20229;-83
2021/12/20 12:51:27;;;;;;;4.30;2.40;;;;;;;19.51;44.74;98160.75;4899314;29;20236;-84
2021/12/20 12:53:55;;;;;;;2.80;2.33;;;;;;;19.08;44.81;98097.44;4888565;29;20210;-83
2021/12/20 12:56:25;;;;;;;3.60;2.20;;;;;;;19.52;45.07;98166.75;4883187;29;20202;-83
2021/12/20 12:59:17;;;;;;;3.17;2.20;;;;;;;19.52;45.13;98170.19;4905559;29;20261;-83
2021/12/20 13:01:52;;;;;;;2.60;1.87;;;;;;;19.01;44.82;98090.34;4884350;29;20201;-84